Aérodrome :
LOGIN :

S'inscrire | Disclaimer

   EN    FR    IT 

 










Légende :    VFR   VFR Marginal   IFR   IFR Intensif   IFR Très Intensif
Visi : 
Plafond : 
>= 8 km
>= 3000ft
5 à 8 km
1000 à 3000 ft
1500m à 5 km
500 à 1000 ft
800 à 1500m
200 à 500 ft
< 800m
< 200 ft
Symboles :   Orages  Brouillard  Fortes neiges  Fortes précipitations  Vent > 20 kt
SIGMETs :   Divers  Orages  Givrage  Turbulence  Onde Orograph.  Cendres Volcan.






- Altitude de l'aérodrome : 277 ft
- Code IATA : JER


EGJJ - Jersey

DERNIER METAR :
  • 140050Z AUTO 27013KT 9999 FEW027/// SCT031/// BKN036/// 07/04 Q0989 RESHRA

METARs EXPIRÉS :
  • 140020Z AUTO 27013KT 9999 -DZ FEW024/// SCT031/// 07/04 Q0990 RESHRA
  • 132350Z AUTO 27012KT 9999 NCD 06/04 Q0990 RESHRA
  • 132320Z AUTO 25014KT 9999 RA FEW020/// SCT039/// BKN045/// 06/03 Q0990 RESHRA
  • 132250Z AUTO 23010KT 200V260 9999 SHRA FEW017/// SCT033/// BKN043/// 06/03 Q0990 RESHRA
  • 132220Z AUTO 26010KT 230V290 9999 FEW045/// 06/04 Q0990 RESHRA

TAF TAF EGJJ
Valide du 14 à 00h jusqu'au 14 à 09h UTC


132258Z 1400/1409 25012KT 9999 FEW015CB SCT025
TEMPO 1400/1406 28022G35KT
TEMPO 1400/1409 6000 SHRA BKN015CB
PROB30
TEMPO 1400/1409 3000 +TSRAGS BKN010CB
ATIS : +44 1534 498 073



MET'MAP, la Météo Aéronautique d'un coup d'oeil ! - Copyright ORBIFLY Décembre 2007 - Disclaimer

ORBIFLY MET'MAP TEAM :

Programmation & Développement : Alexandra Zaïnal
Conception & Développement : Baudouin d'Aumeries
Co-Programmation & Développement : Marc-Olivier Méhu
Soutien technique & logistique : Manuel Goepfert

Contact : metmap@orbifly.com




SOURCES & CREDITS :

   NOAA